sensor_id;sensor_type;location;lat;lon;timestamp;temperature;humidity
31074;DHT22;17730;53.552;9.940;2023-05-19T00:01:43;8.30;1.00
31074;DHT22;17730;53.552;9.940;2023-05-19T00:04:09;8.30;12.10
31074;DHT22;17730;53.552;9.940;2023-05-19T00:06:36;8.30;99.90
31074;DHT22;17730;53.552;9.940;2023-05-19T00:09:06;8.30;99.90
31074;DHT22;17730;53.552;9.940;2023-05-19T00:11:32;8.30;99.90
31074;DHT22;17730;53.552;9.940;2023-05-19T00:14:00;8.30;99.90
31074;DHT22;17730;53.552;9.940;2023-05-19T00:16:27;8.30;28.00
31074;DHT22;17730;53.552;9.940;2023-05-19T00:18:53;8.30;48.90
31074;DHT22;17730;53.552;9.940;2023-05-19T00:21:18;8.30;67.90
31074;DHT22;17730;53.552;9.940;2023-05-19T00:23:44;8.20;62.70
31074;DHT22;17730;53.552;9.940;2023-05-19T00:26:10;8.20;99.90
31074;DHT22;17730;53.552;9.940;2023-05-19T00:28:35;8.30;30.70
31074;DHT22;17730;53.552;9.940;2023-05-19T00:31:01;8.30;67.00
31074;DHT22;17730;53.552;9.940;2023-05-19T00:33:27;8.30;1.00
31074;DHT22;17730;53.552;9.940;2023-05-19T00:35:53;8.30;99.90
31074;DHT22;17730;53.552;9.940;2023-05-19T00:38:18;8.20;1.00
31074;DHT22;17730;53.552;9.940;2023-05-19T00:40:44;8.20;45.10
31074;DHT22;17730;53.552;9.940;2023-05-19T00:43:09;8.30;99.90
31074;DHT22;17730;53.552;9.940;2023-05-19T00:45:35;8.20;99.90
31074;DHT22;17730;53.552;9.940;2023-05-19T00:48:00;8.20;15.40
31074;DHT22;17730;53.552;9.940;2023-05-19T00:50:26;8.20;1.00
31074;DHT22;17730;53.552;9.940;2023-05-19T00:52:55;8.20;1.00
31074;DHT22;17730;53.552;9.940;2023-05-19T00:55:25;8.20;1.00
31074;DHT22;17730;53.552;9.940;2023-05-19T00:57:52;8.20;86.80
31074;DHT22;17730;53.552;9.940;2023-05-19T01:00:17;8.30;99.90
31074;DHT22;17730;53.552;9.940;2023-05-19T01:02:43;8.20;99.90
31074;DHT22;17730;53.552;9.940;2023-05-19T01:05:08;8.20;99.90
31074;DHT22;17730;53.552;9.940;2023-05-19T01:07:34;8.20;1.00
31074;DHT22;17730;53.552;9.940;2023-05-19T01:10:01;8.20;99.90
31074;DHT22;17730;53.552;9.940;2023-05-19T01:12:26;8.20;99.90
31074;DHT22;17730;53.552;9.940;2023-05-19T01:14:52;8.20;1.00
31074;DHT22;17730;53.552;9.940;2023-05-19T01:17:24;8.10;99.90
31074;DHT22;17730;53.552;9.940;2023-05-19T01:20:14;8.10;1.00
31074;DHT22;17730;53.552;9.940;2023-05-19T01:22:56;8.10;1.00
31074;DHT22;17730;53.552;9.940;2023-05-19T01:30:43;8.10;99.90
31074;DHT22;17730;53.552;9.940;2023-05-19T01:33:10;8.10;99.90
31074;DHT22;17730;53.552;9.940;2023-05-19T01:35:36;8.00;99.90
31074;DHT22;17730;53.552;9.940;2023-05-19T01:38:03;8.00;99.90
31074;DHT22;17730;53.552;9.940;2023-05-19T01:40:29;8.00;99.90
31074;DHT22;17730;53.552;9.940;2023-05-19T01:42:55;8.00;99.90
31074;DHT22;17730;53.552;9.940;2023-05-19T01:45:21;8.00;99.90
31074;DHT22;17730;53.552;9.940;2023-05-19T01:47:49;8.10;99.90
31074;DHT22;17730;53.552;9.940;2023-05-19T01:50:15;8.10;99.90
31074;DHT22;17730;53.552;9.940;2023-05-19T01:52:40;8.20;1.00
31074;DHT22;17730;53.552;9.940;2023-05-19T01:55:06;8.20;99.90
31074;DHT22;17730;53.552;9.940;2023-05-19T01:57:33;8.30;1.00
31074;DHT22;17730;53.552;9.940;2023-05-19T02:02:43;8.30;99.90
31074;DHT22;17730;53.552;9.940;2023-05-19T02:05:17;8.30;5.60
31074;DHT22;17730;53.552;9.940;2023-05-19T02:07:55;8.30;15.60
31074;DHT22;17730;53.552;9.940;2023-05-19T02:10:22;8.30;99.90
31074;DHT22;17730;53.552;9.940;2023-05-19T02:12:52;8.30;99.90
31074;DHT22;17730;53.552;9.940;2023-05-19T02:15:23;8.20;99.90
31074;DHT22;17730;53.552;9.940;2023-05-19T02:17:50;8.20;99.90
31074;DHT22;17730;53.552;9.940;2023-05-19T02:20:18;8.20;99.90
31074;DHT22;17730;53.552;9.940;2023-05-19T02:22:46;8.20;1.00
31074;DHT22;17730;53.552;9.940;2023-05-19T02:25:11;8.20;94.10
31074;DHT22;17730;53.552;9.940;2023-05-19T02:27:37;8.20;99.90
31074;DHT22;17730;53.552;9.940;2023-05-19T02:30:03;8.20;99.90
31074;DHT22;17730;53.552;9.940;2023-05-19T02:32:29;8.20;99.90
31074;DHT22;17730;53.552;9.940;2023-05-19T02:34:54;8.20;99.90
31074;DHT22;17730;53.552;9.940;2023-05-19T02:37:20;8.20;99.90
31074;DHT22;17730;53.552;9.940;2023-05-19T02:39:48;8.20;99.90
31074;DHT22;17730;53.552;9.940;2023-05-19T02:42:13;8.20;99.90
31074;DHT22;17730;53.552;9.940;2023-05-19T02:44:41;8.20;99.90
31074;DHT22;17730;53.552;9.940;2023-05-19T02:47:07;8.20;99.90
31074;DHT22;17730;53.552;9.940;2023-05-19T02:49:32;8.20;1.00
31074;DHT22;17730;53.552;9.940;2023-05-19T02:52:01;8.20;99.90
31074;DHT22;17730;53.552;9.940;2023-05-19T02:54:28;8.30;1.00
31074;DHT22;17730;53.552;9.940;2023-05-19T02:56:54;8.30;99.90
31074;DHT22;17730;53.552;9.940;2023-05-19T02:59:19;8.30;99.90
31074;DHT22;17730;53.552;9.940;2023-05-19T03:01:45;8.30;99.90
31074;DHT22;17730;53.552;9.940;2023-05-19T03:04:11;8.40;1.00
31074;DHT22;17730;53.552;9.940;2023-05-19T03:06:38;8.40;1.00
31074;DHT22;17730;53.552;9.940;2023-05-19T03:09:03;8.40;99.90
31074;DHT22;17730;53.552;9.940;2023-05-19T03:11:30;8.40;1.00
31074;DHT22;17730;53.552;9.940;2023-05-19T03:13:59;8.40;1.00
31074;DHT22;17730;53.552;9.940;2023-05-19T03:16:25;8.40;1.00
31074;DHT22;17730;53.552;9.940;2023-05-19T03:18:52;8.40;1.00
31074;DHT22;17730;53.552;9.940;2023-05-19T03:21:17;8.50;1.00
31074;DHT22;17730;53.552;9.940;2023-05-19T03:23:43;8.50;1.00
31074;DHT22;17730;53.552;9.940;2023-05-19T03:26:08;8.50;1.00
31074;DHT22;17730;53.552;9.940;2023-05-19T03:28:34;8.50;1.00
31074;DHT22;17730;53.552;9.940;2023-05-19T03:30:59;8.50;7.90
31074;DHT22;17730;53.552;9.940;2023-05-19T03:33:25;8.60;9.10
31074;DHT22;17730;53.552;9.940;2023-05-19T03:35:54;8.60;5.50
31074;DHT22;17730;53.552;9.940;2023-05-19T03:38:20;8.80;1.00
31074;DHT22;17730;53.552;9.940;2023-05-19T03:40:46;8.90;99.90
31074;DHT22;17730;53.552;9.940;2023-05-19T03:43:11;8.90;99.90
31074;DHT22;17730;53.552;9.940;2023-05-19T03:45:37;8.80;99.90
31074;DHT22;17730;53.552;9.940;2023-05-19T03:48:02;8.80;99.90
31074;DHT22;17730;53.552;9.940;2023-05-19T03:50:28;8.80;99.90
31074;DHT22;17730;53.552;9.940;2023-05-19T03:52:55;8.80;99.90
31074;DHT22;17730;53.552;9.940;2023-05-19T03:55:21;8.80;99.90
31074;DHT22;17730;53.552;9.940;2023-05-19T03:57:46;8.90;99.90
31074;DHT22;17730;53.552;9.940;2023-05-19T04:00:13;8.90;99.90
31074;DHT22;17730;53.552;9.940;2023-05-19T04:02:38;8.90;99.90
31074;DHT22;17730;53.552;9.940;2023-05-19T04:05:04;9.00;99.90
31074;DHT22;17730;53.552;9.940;2023-05-19T04:07:30;9.00;99.90
31074;DHT22;17730;53.552;9.940;2023-05-19T04:09:56;9.10;99.90
31074;DHT22;17730;53.552;9.940;2023-05-19T04:12:21;9.10;99.90
31074;DHT22;17730;53.552;9.940;2023-05-19T04:14:46;9.20;99.90
31074;DHT22;17730;53.552;9.940;2023-05-19T04:17:12;9.20;99.90
31074;DHT22;17730;53.552;9.940;2023-05-19T04:19:37;9.30;99.90
31074;DHT22;17730;53.552;9.940;2023-05-19T04:22:03;9.30;99.90
31074;DHT22;17730;53.552;9.940;2023-05-19T04:24:29;9.40;55.80
31074;DHT22;17730;53.552;9.940;2023-05-19T04:26:54;9.40;1.00
31074;DHT22;17730;53.552;9.940;2023-05-19T04:29:20;9.40;1.00
31074;DHT22;17730;53.552;9.940;2023-05-19T04:31:47;9.50;1.00
31074;DHT22;17730;53.552;9.940;2023-05-19T04:34:13;9.50;99.90
31074;DHT22;17730;53.552;9.940;2023-05-19T04:36:38;9.60;99.90
31074;DHT22;17730;53.552;9.940;2023-05-19T04:39:04;9.60;99.90
31074;DHT22;17730;53.552;9.940;2023-05-19T04:41:33;9.70;99.90
31074;DHT22;17730;53.552;9.940;2023-05-19T04:43:59;9.80;54.60
31074;DHT22;17730;53.552;9.940;2023-05-19T04:46:25;9.90;99.90
31074;DHT22;17730;53.552;9.940;2023-05-19T04:48:50;10.00;99.90
31074;DHT22;17730;53.552;9.940;2023-05-19T04:51:17;10.10;99.90
31074;DHT22;17730;53.552;9.940;2023-05-19T04:53:44;10.20;19.50
31074;DHT22;17730;53.552;9.940;2023-05-19T04:56:09;10.20;53.50
31074;DHT22;17730;53.552;9.940;2023-05-19T04:58:38;10.20;1.00
31074;DHT22;17730;53.552;9.940;2023-05-19T05:01:03;10.30;1.00
31074;DHT22;17730;53.552;9.940;2023-05-19T05:03:28;10.30;99.90
31074;DHT22;17730;53.552;9.940;2023-05-19T05:05:55;10.30;99.90
31074;DHT22;17730;53.552;9.940;2023-05-19T05:08:21;10.30;99.90
31074;DHT22;17730;53.552;9.940;2023-05-19T05:10:50;10.30;99.90
31074;DHT22;17730;53.552;9.940;2023-05-19T05:13:17;10.40;99.90
31074;DHT22;17730;53.552;9.940;2023-05-19T05:15:42;10.50;99.90
31074;DHT22;17730;53.552;9.940;2023-05-19T05:18:08;10.50;99.90
31074;DHT22;17730;53.552;9.940;2023-05-19T05:20:33;10.60;17.30
31074;DHT22;17730;53.552;9.940;2023-05-19T05:22:59;10.60;1.00
31074;DHT22;17730;53.552;9.940;2023-05-19T05:25:25;10.70;99.90
31074;DHT22;17730;53.552;9.940;2023-05-19T05:27:51;10.80;1.00
31074;DHT22;17730;53.552;9.940;2023-05-19T05:30:16;10.90;99.90
31074;DHT22;17730;53.552;9.940;2023-05-19T05:32:41;11.00;99.90
31074;DHT22;17730;53.552;9.940;2023-05-19T05:35:07;11.10;44.30
31074;DHT22;17730;53.552;9.940;2023-05-19T05:37:33;11.20;99.90
31074;DHT22;17730;53.552;9.940;2023-05-19T05:39:58;11.30;99.90
31074;DHT22;17730;53.552;9.940;2023-05-19T05:42:24;11.40;99.90
31074;DHT22;17730;53.552;9.940;2023-05-19T05:44:49;11.40;99.90
31074;DHT22;17730;53.552;9.940;2023-05-19T05:47:15;11.60;99.90
31074;DHT22;17730;53.552;9.940;2023-05-19T05:49:41;11.70;1.00
31074;DHT22;17730;53.552;9.940;2023-05-19T05:52:09;11.80;99.90
31074;DHT22;17730;53.552;9.940;2023-05-19T05:54:35;11.70;99.90
31074;DHT22;17730;53.552;9.940;2023-05-19T05:57:01;11.80;99.90
31074;DHT22;17730;53.552;9.940;2023-05-19T05:59:26;11.90;99.90
31074;DHT22;17730;53.552;9.940;2023-05-19T06:01:52;12.00;99.90
31074;DHT22;17730;53.552;9.940;2023-05-19T06:04:17;12.00;99.90
31074;DHT22;17730;53.552;9.940;2023-05-19T06:06:44;12.20;99.90
31074;DHT22;17730;53.552;9.940;2023-05-19T06:09:10;12.40;99.90
31074;DHT22;17730;53.552;9.940;2023-05-19T06:11:36;12.60;30.20
31074;DHT22;17730;53.552;9.940;2023-05-19T06:14:02;12.60;1.00
31074;DHT22;17730;53.552;9.940;2023-05-19T06:16:27;12.70;1.00
31074;DHT22;17730;53.552;9.940;2023-05-19T06:18:53;12.80;1.00
31074;DHT22;17730;53.552;9.940;2023-05-19T06:21:18;12.90;1.00
31074;DHT22;17730;53.552;9.940;2023-05-19T06:23:44;12.80;1.00
31074;DHT22;17730;53.552;9.940;2023-05-19T06:26:10;12.70;1.00
31074;DHT22;17730;53.552;9.940;2023-05-19T06:28:35;12.70;1.00
31074;DHT22;17730;53.552;9.940;2023-05-19T06:31:01;12.80;1.00
31074;DHT22;17730;53.552;9.940;2023-05-19T06:33:26;12.80;99.90
31074;DHT22;17730;53.552;9.940;2023-05-19T06:35:52;12.90;99.90
31074;DHT22;17730;53.552;9.940;2023-05-19T06:38:17;13.00;99.90
31074;DHT22;17730;53.552;9.940;2023-05-19T06:40:43;12.90;99.90
31074;DHT22;17730;53.552;9.940;2023-05-19T06:43:08;13.00;1.00
31074;DHT22;17730;53.552;9.940;2023-05-19T06:45:34;13.10;99.90
31074;DHT22;17730;53.552;9.940;2023-05-19T06:48:00;13.20;99.90
31074;DHT22;17730;53.552;9.940;2023-05-19T06:50:26;13.30;99.90
31074;DHT22;17730;53.552;9.940;2023-05-19T06:52:51;13.40;99.90
31074;DHT22;17730;53.552;9.940;2023-05-19T06:55:17;13.50;99.90
31074;DHT22;17730;53.552;9.940;2023-05-19T06:57:42;13.40;99.90
31074;DHT22;17730;53.552;9.940;2023-05-19T07:00:08;13.60;99.90
31074;DHT22;17730;53.552;9.940;2023-05-19T07:02:36;13.80;99.90
31074;DHT22;17730;53.552;9.940;2023-05-19T07:05:02;13.70;99.90
31074;DHT22;17730;53.552;9.940;2023-05-19T07:07:27;13.50;99.90
31074;DHT22;17730;53.552;9.940;2023-05-19T07:09:53;13.40;99.90
31074;DHT22;17730;53.552;9.940;2023-05-19T07:12:18;13.40;99.90
31074;DHT22;17730;53.552;9.940;2023-05-19T07:14:44;13.50;99.90
31074;DHT22;17730;53.552;9.940;2023-05-19T07:17:09;13.40;99.90
31074;DHT22;17730;53.552;9.940;2023-05-19T07:19:35;13.40;99.90
31074;DHT22;17730;53.552;9.940;2023-05-19T07:22:00;13.40;99.90
31074;DHT22;17730;53.552;9.940;2023-05-19T07:24:26;13.30;99.90
31074;DHT22;17730;53.552;9.940;2023-05-19T07:26:51;13.40;99.90
31074;DHT22;17730;53.552;9.940;2023-05-19T07:29:17;13.50;99.90
31074;DHT22;17730;53.552;9.940;2023-05-19T07:31:42;13.70;99.90
31074;DHT22;17730;53.552;9.940;2023-05-19T07:34:08;14.00;99.90
31074;DHT22;17730;53.552;9.940;2023-05-19T07:36:33;14.30;99.90
31074;DHT22;17730;53.552;9.940;2023-05-19T07:38:59;14.40;99.90
31074;DHT22;17730;53.552;9.940;2023-05-19T07:41:24;14.30;99.90
31074;DHT22;17730;53.552;9.940;2023-05-19T07:43:50;14.20;99.90
31074;DHT22;17730;53.552;9.940;2023-05-19T07:46:15;14.30;99.90
31074;DHT22;17730;53.552;9.940;2023-05-19T07:48:41;14.40;99.90
31074;DHT22;17730;53.552;9.940;2023-05-19T07:51:06;14.70;99.90
31074;DHT22;17730;53.552;9.940;2023-05-19T07:53:37;15.00;99.90
31074;DHT22;17730;53.552;9.940;2023-05-19T07:56:03;15.10;99.90
31074;DHT22;17730;53.552;9.940;2023-05-19T07:58:28;15.00;99.90
31074;DHT22;17730;53.552;9.940;2023-05-19T08:00:57;14.90;99.90
31074;DHT22;17730;53.552;9.940;2023-05-19T08:03:24;14.70;99.90
31074;DHT22;17730;53.552;9.940;2023-05-19T08:05:49;14.70;99.90
31074;DHT22;17730;53.552;9.940;2023-05-19T08:08:15;14.80;99.90
31074;DHT22;17730;53.552;9.940;2023-05-19T08:10:44;14.90;99.90
31074;DHT22;17730;53.552;9.940;2023-05-19T08:13:09;14.90;99.90
31074;DHT22;17730;53.552;9.940;2023-05-19T08:15:35;15.20;99.90
31074;DHT22;17730;53.552;9.940;2023-05-19T08:18:01;15.30;99.90
31074;DHT22;17730;53.552;9.940;2023-05-19T08:20:27;15.60;99.90
31074;DHT22;17730;53.552;9.940;2023-05-19T08:22:52;15.60;99.90
31074;DHT22;17730;53.552;9.940;2023-05-19T08:25:18;15.40;99.90
31074;DHT22;17730;53.552;9.940;2023-05-19T08:27:44;15.40;99.90
31074;DHT22;17730;53.552;9.940;2023-05-19T08:30:10;15.30;99.90
31074;DHT22;17730;53.552;9.940;2023-05-19T08:32:36;15.40;99.90
31074;DHT22;17730;53.552;9.940;2023-05-19T08:35:01;15.50;99.90
31074;DHT22;17730;53.552;9.940;2023-05-19T08:37:26;15.70;99.90
31074;DHT22;17730;53.552;9.940;2023-05-19T08:39:52;15.90;99.90
31074;DHT22;17730;53.552;9.940;2023-05-19T08:42:17;15.90;99.90
31074;DHT22;17730;53.552;9.940;2023-05-19T08:44:43;15.80;99.90
31074;DHT22;17730;53.552;9.940;2023-05-19T08:47:09;15.80;99.90
31074;DHT22;17730;53.552;9.940;2023-05-19T08:49:48;15.70;99.90
31074;DHT22;17730;53.552;9.940;2023-05-19T08:54:52;15.80;99.90
31074;DHT22;17730;53.552;9.940;2023-05-19T08:57:19;15.90;99.90
31074;DHT22;17730;53.552;9.940;2023-05-19T08:59:45;16.00;99.90
31074;DHT22;17730;53.552;9.940;2023-05-19T09:02:11;16.00;99.90
31074;DHT22;17730;53.552;9.940;2023-05-19T09:04:38;16.10;99.90
31074;DHT22;17730;53.552;9.940;2023-05-19T09:07:04;16.20;99.90
31074;DHT22;17730;53.552;9.940;2023-05-19T09:09:30;16.20;99.90
31074;DHT22;17730;53.552;9.940;2023-05-19T09:11:57;16.30;99.90
31074;DHT22;17730;53.552;9.940;2023-05-19T09:14:23;16.30;99.90
31074;DHT22;17730;53.552;9.940;2023-05-19T09:16:48;16.30;99.90
31074;DHT22;17730;53.552;9.940;2023-05-19T09:19:16;16.30;99.90
31074;DHT22;17730;53.552;9.940;2023-05-19T09:21:42;16.60;99.90
31074;DHT22;17730;53.552;9.940;2023-05-19T09:24:09;16.90;99.90
31074;DHT22;17730;53.552;9.940;2023-05-19T09:26:39;16.90;99.90
31074;DHT22;17730;53.552;9.940;2023-05-19T09:29:11;16.90;99.90
31074;DHT22;17730;53.552;9.940;2023-05-19T09:31:37;16.70;99.90
31074;DHT22;17730;53.552;9.940;2023-05-19T09:34:02;16.70;99.90
31074;DHT22;17730;53.552;9.940;2023-05-19T09:36:28;16.60;99.90
31074;DHT22;17730;53.552;9.940;2023-05-19T09:38:54;16.50;99.90
31074;DHT22;17730;53.552;9.940;2023-05-19T09:41:19;16.60;99.90
31074;DHT22;17730;53.552;9.940;2023-05-19T09:43:52;16.50;99.90
31074;DHT22;17730;53.552;9.940;2023-05-19T09:46:18;16.50;99.90
31074;DHT22;17730;53.552;9.940;2023-05-19T09:48:52;16.60;99.90
31074;DHT22;17730;53.552;9.940;2023-05-19T09:51:20;16.70;99.90
31074;DHT22;17730;53.552;9.940;2023-05-19T09:53:46;16.80;99.90
31074;DHT22;17730;53.552;9.940;2023-05-19T09:56:12;16.70;99.90
31074;DHT22;17730;53.552;9.940;2023-05-19T09:58:40;16.90;99.90
31074;DHT22;17730;53.552;9.940;2023-05-19T10:01:06;17.00;99.90
31074;DHT22;17730;53.552;9.940;2023-05-19T10:03:33;17.20;99.90
31074;DHT22;17730;53.552;9.940;2023-05-19T10:05:59;17.20;99.90
31074;DHT22;17730;53.552;9.940;2023-05-19T10:08:25;17.10;99.90
31074;DHT22;17730;53.552;9.940;2023-05-19T10:10:51;17.50;99.90
31074;DHT22;17730;53.552;9.940;2023-05-19T10:13:17;17.40;99.90
31074;DHT22;17730;53.552;9.940;2023-05-19T10:15:43;17.40;99.90
31074;DHT22;17730;53.552;9.940;2023-05-19T10:18:11;17.40;99.90
31074;DHT22;17730;53.552;9.940;2023-05-19T10:20:36;17.60;99.90
31074;DHT22;17730;53.552;9.940;2023-05-19T10:23:02;17.90;99.90
31074;DHT22;17730;53.552;9.940;2023-05-19T10:25:31;17.90;99.90
31074;DHT22;17730;53.552;9.940;2023-05-19T10:27:59;17.40;99.90
31074;DHT22;17730;53.552;9.940;2023-05-19T10:30:27;17.10;99.90
31074;DHT22;17730;53.552;9.940;2023-05-19T10:32:53;17.00;99.90
31074;DHT22;17730;53.552;9.940;2023-05-19T10:40:37;17.10;99.90
31074;DHT22;17730;53.552;9.940;2023-05-19T10:43:19;16.90;99.90
31074;DHT22;17730;53.552;9.940;2023-05-19T10:45:47;16.90;99.90
31074;DHT22;17730;53.552;9.940;2023-05-19T10:48:16;17.10;99.90
31074;DHT22;17730;53.552;9.940;2023-05-19T10:50:46;17.30;99.90
31074;DHT22;17730;53.552;9.940;2023-05-19T10:53:16;17.60;99.90
31074;DHT22;17730;53.552;9.940;2023-05-19T10:55:53;17.70;99.90
31074;DHT22;17730;53.552;9.940;2023-05-19T10:58:37;17.70;99.90
31074;DHT22;17730;53.552;9.940;2023-05-19T11:01:06;17.60;99.90
31074;DHT22;17730;53.552;9.940;2023-05-19T11:03:35;17.60;99.90
31074;DHT22;17730;53.552;9.940;2023-05-19T11:09:12;17.80;99.90
31074;DHT22;17730;53.552;9.940;2023-05-19T11:11:47;18.00;99.90
31074;DHT22;17730;53.552;9.940;2023-05-19T11:14:17;17.90;99.90
31074;DHT22;17730;53.552;9.940;2023-05-19T11:16:45;17.90;99.90
31074;DHT22;17730;53.552;9.940;2023-05-19T11:19:31;17.90;99.90
31074;DHT22;17730;53.552;9.940;2023-05-19T11:22:06;18.10;99.90
31074;DHT22;17730;53.552;9.940;2023-05-19T11:24:32;18.10;99.90
31074;DHT22;17730;53.552;9.940;2023-05-19T11:26:58;18.00;99.90
31074;DHT22;17730;53.552;9.940;2023-05-19T11:29:23;18.20;99.90
31074;DHT22;17730;53.552;9.940;2023-05-19T11:31:49;17.90;99.90
31074;DHT22;17730;53.552;9.940;2023-05-19T11:34:15;17.90;99.90
31074;DHT22;17730;53.552;9.940;2023-05-19T11:36:41;18.00;99.90
31074;DHT22;17730;53.552;9.940;2023-05-19T11:39:07;18.00;99.90
31074;DHT22;17730;53.552;9.940;2023-05-19T11:41:37;18.30;99.90
31074;DHT22;17730;53.552;9.940;2023-05-19T11:44:08;18.80;99.90
31074;DHT22;17730;53.552;9.940;2023-05-19T11:46:33;19.00;99.90
31074;DHT22;17730;53.552;9.940;2023-05-19T11:48:58;19.30;99.90
31074;DHT22;17730;53.552;9.940;2023-05-19T11:51:26;19.00;99.90
31074;DHT22;17730;53.552;9.940;2023-05-19T11:53:51;19.10;99.90
31074;DHT22;17730;53.552;9.940;2023-05-19T11:56:18;19.00;99.90
31074;DHT22;17730;53.552;9.940;2023-05-19T11:58:44;19.00;99.90
31074;DHT22;17730;53.552;9.940;2023-05-19T12:01:09;19.50;99.90
31074;DHT22;17730;53.552;9.940;2023-05-19T12:03:35;20.40;99.90
31074;DHT22;17730;53.552;9.940;2023-05-19T12:06:01;20.90;99.90
31074;DHT22;17730;53.552;9.940;2023-05-19T12:08:28;20.10;99.90
31074;DHT22;17730;53.552;9.940;2023-05-19T12:10:53;20.00;99.90
31074;DHT22;17730;53.552;9.940;2023-05-19T12:13:20;19.90;99.90
31074;DHT22;17730;53.552;9.940;2023-05-19T12:15:49;20.00;99.90
31074;DHT22;17730;53.552;9.940;2023-05-19T12:18:14;20.70;99.90
31074;DHT22;17730;53.552;9.940;2023-05-19T12:20:39;21.50;99.90
31074;DHT22;17730;53.552;9.940;2023-05-19T12:23:05;21.80;99.90
31074;DHT22;17730;53.552;9.940;2023-05-19T12:25:31;22.30;99.90
31074;DHT22;17730;53.552;9.940;2023-05-19T12:27:58;22.40;99.90
31074;DHT22;17730;53.552;9.940;2023-05-19T12:30:27;22.10;99.90
31074;DHT22;17730;53.552;9.940;2023-05-19T12:32:54;21.40;99.90
31074;DHT22;17730;53.552;9.940;2023-05-19T12:35:24;20.80;99.90
31074;DHT22;17730;53.552;9.940;2023-05-19T12:37:50;20.40;99.90
31074;DHT22;17730;53.552;9.940;2023-05-19T12:40:16;20.00;99.90
31074;DHT22;17730;53.552;9.940;2023-05-19T12:42:44;19.80;99.90
31074;DHT22;17730;53.552;9.940;2023-05-19T12:45:10;19.50;99.90
31074;DHT22;17730;53.552;9.940;2023-05-19T12:47:36;19.20;99.90
31074;DHT22;17730;53.552;9.940;2023-05-19T12:50:02;19.40;99.90
31074;DHT22;17730;53.552;9.940;2023-05-19T12:52:29;19.80;99.90
31074;DHT22;17730;53.552;9.940;2023-05-19T12:55:04;20.20;99.90
31074;DHT22;17730;53.552;9.940;2023-05-19T12:57:34;20.30;99.90
31074;DHT22;17730;53.552;9.940;2023-05-19T13:00:01;20.60;99.90
31074;DHT22;17730;53.552;9.940;2023-05-19T13:02:27;20.50;99.90
31074;DHT22;17730;53.552;9.940;2023-05-19T13:04:52;20.00;99.90
31074;DHT22;17730;53.552;9.940;2023-05-19T13:07:19;19.60;99.90
31074;DHT22;17730;53.552;9.940;2023-05-19T13:09:44;19.50;99.90
31074;DHT22;17730;53.552;9.940;2023-05-19T13:12:10;19.80;99.90
31074;DHT22;17730;53.552;9.940;2023-05-19T13:14:35;19.80;99.90
31074;DHT22;17730;53.552;9.940;2023-05-19T13:17:01;19.60;99.90
31074;DHT22;17730;53.552;9.940;2023-05-19T13:19:27;19.40;99.90
31074;DHT22;17730;53.552;9.940;2023-05-19T13:21:53;19.20;99.90
31074;DHT22;17730;53.552;9.940;2023-05-19T13:24:18;19.50;99.90
31074;DHT22;17730;53.552;9.940;2023-05-19T13:26:44;19.30;99.90
31074;DHT22;17730;53.552;9.940;2023-05-19T13:29:09;19.40;99.90
31074;DHT22;17730;53.552;9.940;2023-05-19T13:31:36;19.50;99.90
31074;DHT22;17730;53.552;9.940;2023-05-19T13:34:01;19.60;99.90
31074;DHT22;17730;53.552;9.940;2023-05-19T13:36:27;19.50;99.90
31074;DHT22;17730;53.552;9.940;2023-05-19T13:38:53;19.40;99.90
31074;DHT22;17730;53.552;9.940;2023-05-19T13:41:22;19.30;99.90
31074;DHT22;17730;53.552;9.940;2023-05-19T13:43:49;19.30;99.90
31074;DHT22;17730;53.552;9.940;2023-05-19T13:46:14;19.10;99.90
31074;DHT22;17730;53.552;9.940;2023-05-19T13:48:40;19.00;99.90
31074;DHT22;17730;53.552;9.940;2023-05-19T13:51:05;19.00;99.90
31074;DHT22;17730;53.552;9.940;2023-05-19T13:53:31;19.20;99.90
31074;DHT22;17730;53.552;9.940;2023-05-19T13:55:57;19.10;99.90
31074;DHT22;17730;53.552;9.940;2023-05-19T13:58:24;19.00;99.90
31074;DHT22;17730;53.552;9.940;2023-05-19T14:00:50;19.10;99.90
31074;DHT22;17730;53.552;9.940;2023-05-19T14:03:19;19.20;99.90
31074;DHT22;17730;53.552;9.940;2023-05-19T14:05:46;19.20;99.90
31074;DHT22;17730;53.552;9.940;2023-05-19T14:08:12;18.90;99.90
31074;DHT22;17730;53.552;9.940;2023-05-19T14:10:37;18.80;99.90
31074;DHT22;17730;53.552;9.940;2023-05-19T14:13:03;18.60;99.90
31074;DHT22;17730;53.552;9.940;2023-05-19T14:15:28;18.60;99.90
31074;DHT22;17730;53.552;9.940;2023-05-19T14:17:54;18.70;99.90
31074;DHT22;17730;53.552;9.940;2023-05-19T14:20:19;19.00;99.90
31074;DHT22;17730;53.552;9.940;2023-05-19T14:22:45;19.20;99.90
31074;DHT22;17730;53.552;9.940;2023-05-19T14:25:10;19.20;99.90
31074;DHT22;17730;53.552;9.940;2023-05-19T14:27:36;19.00;99.90
31074;DHT22;17730;53.552;9.940;2023-05-19T14:30:04;18.70;99.90
31074;DHT22;17730;53.552;9.940;2023-05-19T14:32:29;18.70;99.90
31074;DHT22;17730;53.552;9.940;2023-05-19T14:34:55;18.90;99.90
31074;DHT22;17730;53.552;9.940;2023-05-19T14:37:20;19.10;99.90
31074;DHT22;17730;53.552;9.940;2023-05-19T14:39:46;19.20;99.90
31074;DHT22;17730;53.552;9.940;2023-05-19T14:42:11;19.20;99.90
31074;DHT22;17730;53.552;9.940;2023-05-19T14:44:37;19.30;99.90
31074;DHT22;17730;53.552;9.940;2023-05-19T14:47:02;19.50;99.90
31074;DHT22;17730;53.552;9.940;2023-05-19T14:49:28;19.60;99.90
31074;DHT22;17730;53.552;9.940;2023-05-19T14:51:54;19.20;99.90
31074;DHT22;17730;53.552;9.940;2023-05-19T14:54:19;18.90;99.90
31074;DHT22;17730;53.552;9.940;2023-05-19T14:56:45;18.60;99.90
31074;DHT22;17730;53.552;9.940;2023-05-19T14:59:10;18.70;99.90
31074;DHT22;17730;53.552;9.940;2023-05-19T15:01:36;18.80;99.90
31074;DHT22;17730;53.552;9.940;2023-05-19T15:04:01;18.90;99.90
31074;DHT22;17730;53.552;9.940;2023-05-19T15:06:27;18.90;99.90
31074;DHT22;17730;53.552;9.940;2023-05-19T15:08:52;19.00;99.90
31074;DHT22;17730;53.552;9.940;2023-05-19T15:11:18;19.40;99.90
31074;DHT22;17730;53.552;9.940;2023-05-19T15:13:43;19.80;99.90
31074;DHT22;17730;53.552;9.940;2023-05-19T15:16:09;20.10;99.90
31074;DHT22;17730;53.552;9.940;2023-05-19T15:18:37;20.40;99.90
31074;DHT22;17730;53.552;9.940;2023-05-19T15:21:03;20.40;99.90
31074;DHT22;17730;53.552;9.940;2023-05-19T15:23:29;20.10;99.90
31074;DHT22;17730;53.552;9.940;2023-05-19T15:25:54;20.10;99.90
31074;DHT22;17730;53.552;9.940;2023-05-19T15:28:20;20.20;99.90
31074;DHT22;17730;53.552;9.940;2023-05-19T15:30:45;19.90;99.90
31074;DHT22;17730;53.552;9.940;2023-05-19T15:33:11;19.40;99.90
31074;DHT22;17730;53.552;9.940;2023-05-19T15:35:37;19.20;99.90
31074;DHT22;17730;53.552;9.940;2023-05-19T15:38:02;19.20;99.90
31074;DHT22;17730;53.552;9.940;2023-05-19T15:40:31;19.20;99.90
31074;DHT22;17730;53.552;9.940;2023-05-19T15:42:56;19.40;99.90
31074;DHT22;17730;53.552;9.940;2023-05-19T15:45:22;19.60;99.90
31074;DHT22;17730;53.552;9.940;2023-05-19T15:47:47;19.90;99.90
31074;DHT22;17730;53.552;9.940;2023-05-19T15:50:13;19.80;99.90
31074;DHT22;17730;53.552;9.940;2023-05-19T15:52:38;19.50;99.90